Time;durP1;ratioP1;P1;durP2;ratioP2;P2;SDS_P1;SDS_P2;PMS_P1;PMS_P2;Temp;Humidity;BMP_temperature;BMP_pressure;BME280_temperature;BME280_humidity;BME280_pressure;Samples;Min_cycle;Max_cycle;Signal;HPM_P1;HPM_P2
2023/12/25 00:00:07;;;;;;;4.82;2.72;;;11.00;99.90;;;;;;5036020;28;20048;-84
2023/12/25 00:02:34;;;;;;;6.75;3.13;;;11.00;99.90;;;;;;5024838;28;20041;-81
2023/12/25 00:05:01;;;;;;;5.35;3.35;;;10.90;99.90;;;;;;5032918;28;20122;-84
2023/12/25 00:07:28;;;;;;;3.90;2.72;;;10.90;99.90;;;;;;5044551;28;20132;-84
2023/12/25 00:09:55;;;;;;;6.28;3.47;;;11.00;99.90;;;;;;5042624;28;20045;-83
2023/12/25 00:12:23;;;;;;;4.90;3.78;;;10.90;99.90;;;;;;5045475;28;20070;-83
2023/12/25 00:14:50;;;;;;;6.30;3.90;;;11.00;99.90;;;;;;5032008;28;20095;-82
2023/12/25 00:17:17;;;;;;;7.88;4.15;;;10.90;99.90;;;;;;5024800;28;20041;-82
2023/12/25 00:19:44;;;;;;;7.28;3.95;;;10.90;99.90;;;;;;5040403;28;20044;-84
2023/12/25 00:22:12;;;;;;;7.22;4.22;;;10.90;99.90;;;;;;5033635;28;20037;-81
2023/12/25 00:24:40;;;;;;;10.05;4.07;;;10.90;99.90;;;;;;5030619;28;20575;-80
2023/12/25 00:27:07;;;;;;;8.32;4.00;;;10.90;99.90;;;;;;5016157;28;20156;-81
2023/12/25 00:29:34;;;;;;;8.00;3.83;;;10.90;99.90;;;;;;5020025;28;20060;-82
2023/12/25 00:32:01;;;;;;;6.75;3.83;;;10.90;99.90;;;;;;5025819;28;20036;-81
2023/12/25 00:34:28;;;;;;;8.18;2.85;;;10.90;99.90;;;;;;5010441;28;20053;-81
2023/12/25 00:36:55;;;;;;;4.65;3.28;;;10.90;99.90;;;;;;5012726;28;20037;-81
2023/12/25 00:39:21;;;;;;;6.20;3.08;;;10.90;99.90;;;;;;5043986;28;20550;-81
2023/12/25 00:41:48;;;;;;;5.55;2.67;;;10.90;99.90;;;;;;5039974;28;20049;-81
2023/12/25 00:44:15;;;;;;;3.75;2.25;;;10.90;99.90;;;;;;5044857;28;20088;-81
2023/12/25 00:46:42;;;;;;;3.33;2.15;;;11.00;99.90;;;;;;5023130;28;20072;-83
2023/12/25 00:49:10;;;;;;;5.05;2.75;;;11.00;99.90;;;;;;5042614;28;20159;-81
2023/12/25 00:51:37;;;;;;;5.53;2.35;;;11.00;99.90;;;;;;5035875;28;20078;-82
2023/12/25 00:54:04;;;;;;;2.95;2.20;;;11.00;99.90;;;;;;5005374;28;20041;-81
2023/12/25 00:56:31;;;;;;;4.20;2.50;;;11.10;99.90;;;;;;5022486;28;20098;-86
2023/12/25 00:58:59;;;;;;;5.00;2.58;;;11.00;99.90;;;;;;5045415;28;20044;-82
2023/12/25 01:01:26;;;;;;;3.58;2.22;;;11.00;99.90;;;;;;5039471;28;20052;-83
2023/12/25 01:03:52;;;;;;;4.93;2.40;;;11.00;99.90;;;;;;5000778;28;20061;-83
2023/12/25 01:06:21;;;;;;;5.80;3.03;;;10.90;99.90;;;;;;5022278;28;20475;-81
2023/12/25 01:08:48;;;;;;;4.03;2.25;;;10.90;99.90;;;;;;5026004;28;20045;-84
2023/12/25 01:11:15;;;;;;;2.67;1.60;;;10.90;99.90;;;;;;5010245;28;20425;-82
2023/12/25 01:13:42;;;;;;;4.45;2.00;;;11.00;99.90;;;;;;5024188;28;20071;-84
2023/12/25 01:16:08;;;;;;;1.77;1.58;;;11.00;99.90;;;;;;5027389;28;20113;-81
2023/12/25 01:18:35;;;;;;;4.28;2.25;;;10.90;99.90;;;;;;5035075;28;20045;-83
2023/12/25 01:21:04;;;;;;;3.55;1.70;;;10.90;99.90;;;;;;5023632;28;20125;-80
2023/12/25 01:23:30;;;;;;;2.60;1.92;;;10.90;99.90;;;;;;5035898;28;21663;-81
2023/12/25 01:25:58;;;;;;;1.98;1.55;;;10.80;99.90;;;;;;5036328;28;20041;-80
2023/12/25 01:28:25;;;;;;;3.17;2.03;;;10.80;99.90;;;;;;5042287;28;20556;-81
2023/12/25 01:30:51;;;;;;;2.90;1.60;;;10.80;99.90;;;;;;5034039;28;20034;-81
2023/12/25 01:33:18;;;;;;;3.78;1.65;;;10.80;99.90;;;;;;5044371;28;20029;-81
2023/12/25 01:35:45;;;;;;;3.80;1.98;;;10.80;99.90;;;;;;5034252;28;20041;-81
2023/12/25 01:38:13;;;;;;;5.03;1.40;;;10.80;99.90;;;;;;5045309;28;20060;-83
2023/12/25 01:40:44;;;;;;;2.17;1.70;;;10.80;99.90;;;;;;5026637;28;20052;-81
2023/12/25 01:43:12;;;;;;;3.85;1.88;;;10.80;99.90;;;;;;5029038;28;20041;-81
2023/12/25 01:45:39;;;;;;;3.45;2.28;;;10.80;99.90;;;;;;5048001;28;20175;-82
2023/12/25 01:48:07;;;;;;;2.45;1.77;;;10.80;99.90;;;;;;5038483;28;20041;-80
2023/12/25 01:50:34;;;;;;;2.15;1.60;;;10.80;99.90;;;;;;5053696;28;20114;-82
2023/12/25 01:53:02;;;;;;;2.25;1.85;;;10.80;99.90;;;;;;5050480;28;20063;-84
2023/12/25 01:55:29;;;;;;;2.95;1.35;;;10.80;99.90;;;;;;5064499;28;20521;-80
2023/12/25 01:57:56;;;;;;;2.28;1.40;;;10.90;99.90;;;;;;5008873;28;20088;-80
2023/12/25 02:00:23;;;;;;;1.85;1.25;;;10.80;99.90;;;;;;5002650;28;20057;-81
2023/12/25 02:02:51;;;;;;;1.13;0.93;;;10.80;99.90;;;;;;5021129;28;20052;-81
2023/12/25 02:05:18;;;;;;;2.20;1.40;;;10.80;99.90;;;;;;5026420;28;20080;-81
2023/12/25 02:07:47;;;;;;;1.88;1.50;;;10.80;99.90;;;;;;5042623;28;20143;-81
2023/12/25 02:10:28;;;;;;;1.80;1.40;;;10.90;99.90;;;;;;5031184;28;20056;-81
2023/12/25 02:12:57;;;;;;;2.75;1.90;;;10.90;99.90;;;;;;5037513;28;20045;-80
2023/12/25 02:15:24;;;;;;;1.30;1.10;;;10.90;99.90;;;;;;5038945;28;20103;-80
2023/12/25 02:17:51;;;;;;;1.05;0.95;;;10.90;99.90;;;;;;5022634;28;20132;-80
2023/12/25 02:20:21;;;;;;;2.47;1.27;;;10.90;99.90;;;;;;5025119;28;20044;-80
2023/12/25 02:22:49;;;;;;;1.45;1.10;;;10.90;99.90;;;;;;5057298;28;20427;-82
2023/12/25 02:25:30;;;;;;;1.90;1.40;;;10.90;99.90;;;;;;5034684;28;20064;-81
2023/12/25 02:27:57;;;;;;;3.20;1.73;;;10.90;99.90;;;;;;5038290;28;20049;-81
2023/12/25 02:30:24;;;;;;;1.15;1.02;;;10.90;99.90;;;;;;5024857;28;20041;-82
2023/12/25 02:32:51;;;;;;;1.00;0.80;;;10.90;99.90;;;;;;5039508;28;20045;-81
2023/12/25 02:35:18;;;;;;;3.97;1.27;;;10.90;99.90;;;;;;5001142;28;20115;-85
2023/12/25 02:37:45;;;;;;;1.73;1.00;;;10.90;99.90;;;;;;5017724;28;20040;-82
2023/12/25 02:40:13;;;;;;;1.30;0.90;;;10.90;99.90;;;;;;5035470;28;20132;-79
2023/12/25 02:42:41;;;;;;;1.42;1.02;;;10.90;99.90;;;;;;5046964;28;20155;-81
2023/12/25 02:45:08;;;;;;;2.78;1.10;;;10.90;99.90;;;;;;5057016;28;20041;-81
2023/12/25 02:47:34;;;;;;;2.20;1.20;;;10.90;99.90;;;;;;5024006;28;20030;-81
2023/12/25 02:50:02;;;;;;;1.27;0.85;;;10.90;99.90;;;;;;5040335;28;20123;-80
2023/12/25 02:52:29;;;;;;;2.05;0.70;;;10.90;99.90;;;;;;5049040;28;20050;-82
2023/12/25 02:54:56;;;;;;;1.13;0.95;;;10.90;99.90;;;;;;5042547;28;20694;-81
2023/12/25 02:57:23;;;;;;;1.10;0.93;;;10.90;99.90;;;;;;5037443;28;20045;-81
2023/12/25 02:59:49;;;;;;;1.60;1.10;;;10.80;99.90;;;;;;5026901;28;20626;-80
2023/12/25 03:02:17;;;;;;;6.82;1.88;;;10.80;99.90;;;;;;5034122;28;20171;-82
2023/12/25 03:04:44;;;;;;;1.48;1.10;;;10.70;99.90;;;;;;5019742;28;20055;-81
2023/12/25 03:07:11;;;;;;;1.85;1.58;;;10.70;99.90;;;;;;5034996;28;20068;-80
2023/12/25 03:09:38;;;;;;;2.55;1.45;;;10.70;99.90;;;;;;5023573;28;20045;-82
2023/12/25 03:12:07;;;;;;;3.45;2.08;;;10.70;99.90;;;;;;5038695;28;20096;-80
2023/12/25 03:14:33;;;;;;;3.40;2.25;;;10.70;99.90;;;;;;5034688;28;20053;-81
2023/12/25 03:17:00;;;;;;;5.03;2.05;;;10.70;99.90;;;;;;5017345;28;20119;-81
2023/12/25 03:19:27;;;;;;;3.63;2.10;;;10.70;99.90;;;;;;5021671;28;20626;-80
2023/12/25 03:21:53;;;;;;;5.05;2.75;;;10.70;99.90;;;;;;5027331;28;20562;-80
2023/12/25 03:24:20;;;;;;;6.88;3.75;;;10.80;99.90;;;;;;5016674;28;20064;-80
2023/12/25 03:26:47;;;;;;;4.97;3.42;;;10.80;99.90;;;;;;5012593;28;20053;-83
2023/12/25 03:29:14;;;;;;;6.63;4.47;;;10.70;99.90;;;;;;5036662;28;20064;-81
2023/12/25 03:31:41;;;;;;;4.80;4.05;;;10.70;99.90;;;;;;5034594;28;20049;-82
2023/12/25 03:34:08;;;;;;;7.32;4.60;;;10.80;99.90;;;;;;5026545;28;20103;-82
2023/12/25 03:36:36;;;;;;;6.55;4.25;;;10.80;99.90;;;;;;5033840;28;20075;-81
2023/12/25 03:39:03;;;;;;;11.15;5.55;;;10.80;99.90;;;;;;5032978;28;20064;-80
2023/12/25 03:41:30;;;;;;;7.97;5.53;;;10.80;99.90;;;;;;5021258;28;20088;-82
2023/12/25 03:43:57;;;;;;;9.73;6.25;;;10.80;99.90;;;;;;5034869;28;20671;-79
2023/12/25 03:46:24;;;;;;;9.10;6.60;;;10.80;99.90;;;;;;5040218;28;20051;-81
2023/12/25 03:48:51;;;;;;;9.27;6.50;;;10.80;99.90;;;;;;5045800;28;20033;-82
2023/12/25 03:51:18;;;;;;;9.57;6.03;;;10.80;99.90;;;;;;5049278;28;20116;-82
2023/12/25 03:53:44;;;;;;;7.05;4.18;;;10.70;99.90;;;;;;5047457;28;20041;-82
2023/12/25 03:56:18;;;;;;;4.13;1.77;;;10.70;99.90;;;;;;5032643;28;20045;-80
2023/12/25 03:58:45;;;;;;;2.47;1.27;;;10.40;99.90;;;;;;5028461;28;20128;-80
2023/12/25 04:01:11;;;;;;;2.10;1.40;;;10.20;99.90;;;;;;5021081;28;20072;-82
2023/12/25 04:03:38;;;;;;;2.20;1.30;;;10.00;99.90;;;;;;5036644;28;20041;-81
2023/12/25 04:06:05;;;;;;;3.53;0.93;;;9.90;99.90;;;;;;5037938;28;20060;-80
2023/12/25 04:08:32;;;;;;;4.85;1.15;;;9.80;99.90;;;;;;5034211;28;20072;-81
2023/12/25 04:10:59;;;;;;;2.53;1.05;;;9.70;99.90;;;;;;4999262;28;20660;-80
2023/12/25 04:13:25;;;;;;;1.73;0.88;;;9.70;99.90;;;;;;5034313;28;20053;-80
2023/12/25 04:15:52;;;;;;;4.15;0.90;;;9.60;99.90;;;;;;5037707;28;20445;-80
2023/12/25 04:18:19;;;;;;;1.20;0.80;;;9.60;99.90;;;;;;5035928;28;20045;-81
2023/12/25 04:20:46;;;;;;;3.50;1.13;;;9.60;99.90;;;;;;5037278;28;20045;-81
2023/12/25 04:23:13;;;;;;;2.08;0.75;;;9.60;99.90;;;;;;5055029;28;20050;-81
2023/12/25 04:25:40;;;;;;;3.53;1.00;;;9.50;99.90;;;;;;5016813;28;20109;-81
2023/12/25 04:28:07;;;;;;;1.77;0.90;;;9.50;99.90;;;;;;5018945;28;20044;-80
2023/12/25 04:30:34;;;;;;;5.10;1.58;;;9.50;99.90;;;;;;5033271;28;20765;-80
2023/12/25 04:33:02;;;;;;;6.05;1.58;;;9.50;99.90;;;;;;5023029;28;20387;-80
2023/12/25 04:35:29;;;;;;;5.18;1.55;;;9.50;99.90;;;;;;5018411;28;20080;-80
2023/12/25 04:37:56;;;;;;;14.45;3.10;;;9.50;99.90;;;;;;5018398;28;20048;-79
2023/12/25 04:40:22;;;;;;;4.30;2.15;;;9.60;99.90;;;;;;5017132;28;20056;-81
2023/12/25 04:42:49;;;;;;;5.15;2.78;;;9.60;99.90;;;;;;5033663;28;20131;-79
2023/12/25 04:45:16;;;;;;;8.07;2.60;;;9.60;99.90;;;;;;5014832;28;20084;-80
2023/12/25 04:47:43;;;;;;;10.02;3.15;;;9.60;99.90;;;;;;5004249;28;20063;-80
2023/12/25 04:50:10;;;;;;;6.72;2.70;;;9.60;99.90;;;;;;5035272;28;20044;-80
2023/12/25 04:52:37;;;;;;;8.70;3.30;;;9.60;99.90;;;;;;5048957;28;20038;-82
2023/12/25 04:55:04;;;;;;;6.65;3.38;;;9.60;99.90;;;;;;5031972;28;20455;-80
2023/12/25 04:57:30;;;;;;;5.78;3.60;;;9.60;99.90;;;;;;5026951;28;20668;-79
2023/12/25 04:59:58;;;;;;;7.85;3.03;;;9.70;99.90;;;;;;5032446;28;20048;-81
2023/12/25 05:02:24;;;;;;;10.65;4.05;;;9.70;99.90;;;;;;5033568;28;20578;-81
2023/12/25 05:04:51;;;;;;;6.57;3.90;;;9.70;99.90;;;;;;5012110;28;20129;-82
2023/12/25 05:07:18;;;;;;;7.40;3.47;;;9.70;99.90;;;;;;5044377;28;20703;-81
2023/12/25 05:09:45;;;;;;;7.90;3.80;;;9.70;99.90;;;;;;5038505;28;20060;-81
2023/12/25 05:12:11;;;;;;;7.50;4.03;;;9.70;99.90;;;;;;5018510;28;20060;-81
2023/12/25 05:14:38;;;;;;;11.60;4.60;;;9.70;99.90;;;;;;5035985;28;20049;-79
2023/12/25 05:17:05;;;;;;;8.93;6.10;;;9.80;99.90;;;;;;5026394;28;20052;-80
2023/12/25 05:19:31;;;;;;;13.38;7.38;;;9.80;99.90;;;;;;5020112;28;20052;-81
2023/12/25 05:21:59;;;;;;;11.45;6.80;;;9.90;99.90;;;;;;5028057;28;20469;-80
2023/12/25 05:24:26;;;;;;;10.25;4.22;;;10.10;99.90;;;;;;5010649;28;20049;-80
2023/12/25 05:26:52;;;;;;;5.13;3.22;;;10.00;99.90;;;;;;5027329;28;20045;-80
2023/12/25 05:29:19;;;;;;;7.03;4.20;;;10.00;99.90;;;;;;5040020;28;20059;-80
2023/12/25 05:31:46;;;;;;;11.77;6.93;;;10.00;99.90;;;;;;5017409;28;20052;-80
2023/12/25 05:34:13;;;;;;;21.63;9.70;;;10.10;99.90;;;;;;5026132;28;20120;-81
2023/12/25 05:36:40;;;;;;;20.35;11.23;;;10.20;99.90;;;;;;5033019;28;20041;-80
2023/12/25 05:39:07;;;;;;;23.90;13.40;;;10.20;99.90;;;;;;5042704;28;20329;-83
2023/12/25 05:41:43;;;;;;;16.88;9.10;;;10.30;99.90;;;;;;5062382;28;20036;-82
2023/12/25 05:44:10;;;;;;;16.63;9.23;;;10.40;99.90;;;;;;5079760;28;20060;-81
2023/12/25 05:46:37;;;;;;;13.02;5.97;;;10.40;99.90;;;;;;5051015;28;20049;-82
2023/12/25 05:49:05;;;;;;;7.65;3.22;;;10.40;99.90;;;;;;5021360;28;20045;-83
2023/12/25 05:51:32;;;;;;;4.30;1.50;;;10.20;99.90;;;;;;5016025;28;20056;-83
2023/12/25 05:53:59;;;;;;;1.45;0.82;;;10.10;99.90;;;;;;5030132;28;20075;-79
2023/12/25 05:56:26;;;;;;;4.00;1.60;;;10.00;99.90;;;;;;5009960;28;20196;-80
2023/12/25 05:58:53;;;;;;;4.32;2.60;;;10.00;99.90;;;;;;4999459;28;20049;-80
2023/12/25 06:01:20;;;;;;;6.35;4.60;;;10.00;99.90;;;;;;5067068;28;20511;-79
2023/12/25 06:03:49;;;;;;;10.25;4.50;;;10.00;99.90;;;;;;5033878;28;20048;-81
2023/12/25 06:06:17;;;;;;;8.90;6.50;;;10.00;99.90;;;;;;5047463;28;20052;-79
2023/12/25 06:08:44;;;;;;;14.98;9.88;;;10.10;99.90;;;;;;5039166;28;20676;-82
2023/12/25 06:11:10;;;;;;;19.95;11.63;;;10.20;99.90;;;;;;5034844;28;20132;-81
2023/12/25 06:13:37;;;;;;;19.85;12.30;;;10.30;99.90;;;;;;5032453;28;20056;-81
2023/12/25 06:16:04;;;;;;;21.83;13.18;;;10.40;99.90;;;;;;5040435;28;20120;-81
2023/12/25 06:18:31;;;;;;;21.98;13.45;;;10.50;99.90;;;;;;5034044;28;20041;-81
2023/12/25 06:20:59;;;;;;;23.98;13.73;;;10.50;99.90;;;;;;5015267;28;20715;-80
2023/12/25 06:23:26;;;;;;;19.25;12.35;;;10.50;99.90;;;;;;5029884;28;20053;-81
2023/12/25 06:25:53;;;;;;;16.60;12.55;;;10.60;99.90;;;;;;5003095;28;20405;-80
2023/12/25 06:28:19;;;;;;;17.48;10.80;;;10.60;99.90;;;;;;5044429;28;20056;-80
2023/12/25 06:30:46;;;;;;;17.75;12.75;;;10.60;99.90;;;;;;5033806;28;20045;-81
2023/12/25 06:33:13;;;;;;;20.48;12.95;;;10.70;99.90;;;;;;5017404;28;20140;-80
2023/12/25 06:35:40;;;;;;;17.92;10.40;;;10.70;99.90;;;;;;5016668;28;20124;-81
2023/12/25 06:38:07;;;;;;;17.48;11.90;;;10.70;99.90;;;;;;5028503;28;20053;-80
2023/12/25 06:40:34;;;;;;;15.82;10.15;;;10.80;99.90;;;;;;5008183;28;20049;-81
2023/12/25 06:43:01;;;;;;;15.02;10.68;;;10.80;99.90;;;;;;5003388;28;20104;-81
2023/12/25 06:45:27;;;;;;;13.73;10.60;;;10.80;99.90;;;;;;5035112;28;20135;-80
2023/12/25 06:47:54;;;;;;;15.80;9.65;;;10.80;99.90;;;;;;5015273;28;20702;-81
2023/12/25 06:50:22;;;;;;;12.63;8.95;;;10.80;99.90;;;;;;5027718;28;20059;-80
2023/12/25 06:52:49;;;;;;;12.77;8.77;;;10.80;99.90;;;;;;5038983;28;20079;-82
2023/12/25 06:55:16;;;;;;;11.43;8.02;;;10.80;99.90;;;;;;5032181;28;20085;-81
2023/12/25 06:57:43;;;;;;;14.10;9.10;;;10.80;99.90;;;;;;5065999;28;20061;-81
2023/12/25 07:00:11;;;;;;;16.27;9.18;;;10.80;99.90;;;;;;5039296;28;21203;-81
2023/12/25 07:02:38;;;;;;;11.68;7.95;;;10.80;99.90;;;;;;5033786;28;20060;-80
2023/12/25 07:05:05;;;;;;;11.00;7.65;;;10.80;99.90;;;;;;5042999;28;20048;-82
2023/12/25 07:07:32;;;;;;;10.25;8.02;;;10.80;99.90;;;;;;5011199;28;20695;-81
2023/12/25 07:09:59;;;;;;;11.23;7.05;;;10.80;99.90;;;;;;5017333;28;20699;-82
2023/12/25 07:12:26;;;;;;;9.25;6.93;;;10.80;99.90;;;;;;4986379;28;20045;-82
2023/12/25 07:14:53;;;;;;;10.43;7.32;;;10.80;99.90;;;;;;5039991;28;20037;-81
2023/12/25 07:17:20;;;;;;;9.48;6.85;;;10.80;99.90;;;;;;5024864;28;20144;-81
2023/12/25 07:19:47;;;;;;;9.43;6.40;;;10.80;99.90;;;;;;5030190;28;20041;-81
2023/12/25 07:22:14;;;;;;;9.63;6.20;;;10.80;99.90;;;;;;5017422;28;20131;-81
2023/12/25 07:24:41;;;;;;;11.85;7.25;;;10.70;99.90;;;;;;5014460;28;20502;-81
2023/12/25 07:27:08;;;;;;;10.68;6.57;;;10.70;99.90;;;;;;5027366;28;20052;-80
2023/12/25 07:29:35;;;;;;;13.85;8.15;;;10.70;99.90;;;;;;5022041;28;20076;-82
2023/12/25 07:32:02;;;;;;;14.50;6.47;;;10.70;99.90;;;;;;5025909;28;20043;-78
2023/12/25 07:34:29;;;;;;;10.27;5.32;;;10.60;99.90;;;;;;5023480;28;20646;-78
2023/12/25 07:36:56;;;;;;;7.43;5.10;;;10.50;99.90;;;;;;5019898;28;20041;-78
2023/12/25 07:39:23;;;;;;;8.25;5.25;;;10.50;99.90;;;;;;5037868;28;20048;-78
2023/12/25 07:41:49;;;;;;;9.88;5.25;;;10.50;99.90;;;;;;5030763;28;20068;-76
2023/12/25 07:44:16;;;;;;;9.88;6.88;;;10.50;99.90;;;;;;5047753;28;20088;-78
2023/12/25 07:46:43;;;;;;;10.93;6.03;;;10.50;99.90;;;;;;5052798;28;20049;-78
2023/12/25 07:49:11;;;;;;;11.07;6.10;;;10.50;99.90;;;;;;5048618;28;20055;-78
2023/12/25 07:51:38;;;;;;;10.48;5.55;;;10.40;99.90;;;;;;5038387;28;20068;-78
2023/12/25 07:54:05;;;;;;;6.65;5.47;;;10.40;99.90;;;;;;5057397;28;20054;-77
2023/12/25 07:56:31;;;;;;;6.90;4.78;;;10.30;99.90;;;;;;5041232;28;20044;-77
2023/12/25 07:58:58;;;;;;;8.80;4.82;;;10.30;99.90;;;;;;5002424;28;20045;-78
2023/12/25 08:01:26;;;;;;;8.45;5.07;;;10.20;99.90;;;;;;5039894;28;20056;-77
2023/12/25 08:03:53;;;;;;;7.47;4.20;;;10.20;99.90;;;;;;5023822;28;20045;-78
2023/12/25 08:06:19;;;;;;;4.78;3.78;;;10.10;99.90;;;;;;5032751;28;20049;-79
2023/12/25 08:08:48;;;;;;;6.68;3.72;;;10.10;99.90;;;;;;5037004;28;20041;-78
2023/12/25 08:11:16;;;;;;;8.52;4.00;;;10.00;99.90;;;;;;5011341;28;20061;-79
2023/12/25 08:13:42;;;;;;;10.95;3.72;;;10.00;99.90;;;;;;5035988;28;21491;-79
2023/12/25 08:16:09;;;;;;;6.68;3.20;;;9.90;99.90;;;;;;5031623;28;20044;-78
2023/12/25 08:18:36;;;;;;;6.45;3.58;;;9.90;99.90;;;;;;5035103;28;20067;-78
2023/12/25 08:21:04;;;;;;;7.13;4.13;;;9.90;99.90;;;;;;5031998;28;20052;-79
2023/12/25 08:23:31;;;;;;;12.73;3.95;;;9.90;99.90;;;;;;5039123;28;20053;-78
2023/12/25 08:25:59;;;;;;;8.65;3.20;;;9.80;99.90;;;;;;5026800;28;20049;-78
2023/12/25 08:28:26;;;;;;;6.93;3.35;;;9.90;99.90;;;;;;5039100;28;20123;-79
2023/12/25 08:30:53;;;;;;;5.05;3.65;;;9.90;99.90;;;;;;5013044;28;20049;-78
2023/12/25 08:33:19;;;;;;;8.85;3.78;;;9.90;99.90;;;;;;5037866;28;20076;-79
2023/12/25 08:35:47;;;;;;;8.23;2.92;;;9.90;99.90;;;;;;5030827;28;20041;-79
2023/12/25 08:38:14;;;;;;;9.77;2.47;;;9.80;99.90;;;;;;5016844;28;20060;-80
2023/12/25 08:40:40;;;;;;;8.38;2.47;;;9.80;99.90;;;;;;5009894;28;20103;-80
2023/12/25 08:43:08;;;;;;;10.77;2.95;;;9.70;99.90;;;;;;5030059;28;20045;-78
2023/12/25 08:45:34;;;;;;;7.78;3.10;;;9.70;99.90;;;;;;5000818;28;20080;-78
2023/12/25 08:48:01;;;;;;;5.82;2.83;;;9.70;99.90;;;;;;5003284;28;20046;-78
2023/12/25 08:50:28;;;;;;;8.48;2.88;;;9.70;99.90;;;;;;4994616;28;20060;-77
2023/12/25 08:52:55;;;;;;;6.13;3.90;;;9.60;99.90;;;;;;4999785;28;20041;-78
2023/12/25 08:55:22;;;;;;;10.65;3.30;;;9.70;99.90;;;;;;5034533;28;20044;-78
2023/12/25 08:57:49;;;;;;;11.70;3.47;;;9.70;99.90;;;;;;5014815;28;20045;-78
2023/12/25 09:00:16;;;;;;;11.32;4.13;;;9.70;99.90;;;;;;5002231;28;20059;-78
2023/12/25 09:02:43;;;;;;;7.20;3.20;;;9.60;99.90;;;;;;5025677;28;20045;-77
2023/12/25 09:05:10;;;;;;;9.73;2.75;;;9.60;99.90;;;;;;5026363;28;20540;-78
2023/12/25 09:07:36;;;;;;;10.82;3.80;;;9.60;99.90;;;;;;5037670;28;20033;-77
2023/12/25 09:10:06;;;;;;;12.93;4.43;;;9.60;99.90;;;;;;5027833;28;20044;-79
2023/12/25 09:12:33;;;;;;;7.30;3.38;;;9.60;99.90;;;;;;5008853;28;20115;-78
2023/12/25 09:15:01;;;;;;;7.90;3.55;;;9.60;99.90;;;;;;5028118;28;20034;-78
2023/12/25 09:17:28;;;;;;;13.00;3.75;;;9.60;99.90;;;;;;5011746;28;20589;-78
2023/12/25 09:19:55;;;;;;;8.80;3.40;;;9.60;99.90;;;;;;5035364;28;20115;-78
2023/12/25 09:22:24;;;;;;;6.25;3.30;;;9.70;99.90;;;;;;5028113;28;20058;-79
2023/12/25 09:24:51;;;;;;;11.15;2.92;;;9.60;99.90;;;;;;5033231;28;20053;-78
2023/12/25 09:27:19;;;;;;;5.60;3.13;;;9.60;99.90;;;;;;5025322;28;20049;-78
2023/12/25 09:29:46;;;;;;;8.65;3.25;;;9.60;99.90;;;;;;5040431;28;20056;-78
2023/12/25 09:32:13;;;;;;;7.47;3.25;;;9.60;99.90;;;;;;5052384;28;20029;-78
2023/12/25 09:34:39;;;;;;;13.07;3.30;;;9.60;99.90;;;;;;5031377;28;20518;-79
2023/12/25 09:37:25;;;;;;;9.43;2.78;;;9.60;99.90;;;;;;5030045;28;20136;-78
2023/12/25 09:39:52;;;;;;;5.05;3.17;;;9.60;99.90;;;;;;5023337;28;20052;-78
2023/12/25 09:42:19;;;;;;;9.80;4.55;;;9.60;99.90;;;;;;5035174;28;20051;-78
2023/12/25 09:44:54;;;;;;;8.05;3.78;;;9.70;99.90;;;;;;5043301;28;20048;-78
2023/12/25 09:47:21;;;;;;;10.85;4.63;;;9.70;99.90;;;;;;5034382;28;20719;-78
2023/12/25 09:49:49;;;;;;;10.20;5.93;;;9.80;99.90;;;;;;5037851;28;20049;-80
2023/12/25 09:52:17;;;;;;;19.60;8.57;;;9.80;99.90;;;;;;5035522;28;20446;-79
2023/12/25 09:54:44;;;;;;;12.13;7.95;;;9.80;99.90;;;;;;5053263;28;20041;-79
2023/12/25 09:57:13;;;;;;;19.17;8.75;;;9.80;99.90;;;;;;5034375;28;20033;-83
2023/12/25 09:59:42;;;;;;;14.23;8.32;;;9.80;99.90;;;;;;5048112;28;20045;-79
2023/12/25 10:02:10;;;;;;;11.32;5.95;;;9.80;99.90;;;;;;5033783;28;20041;-81
2023/12/25 10:04:39;;;;;;;11.23;6.38;;;9.80;99.90;;;;;;5040619;28;20404;-79
2023/12/25 10:07:06;;;;;;;10.38;5.35;;;9.80;99.90;;;;;;5022162;28;20034;-78
2023/12/25 10:09:33;;;;;;;6.10;3.80;;;9.80;99.90;;;;;;5021807;28;20039;-80
2023/12/25 10:12:00;;;;;;;7.78;4.60;;;9.80;99.90;;;;;;5025175;28;20155;-79
2023/12/25 10:14:29;;;;;;;7.88;4.90;;;9.80;99.90;;;;;;5036111;28;20048;-80
2023/12/25 10:16:58;;;;;;;10.55;3.55;;;9.80;99.90;;;;;;5030636;28;20124;-79
2023/12/25 10:19:25;;;;;;;7.07;4.05;;;9.70;99.90;;;;;;5010319;28;20064;-80
2023/12/25 10:21:53;;;;;;;7.50;4.03;;;9.70;99.90;;;;;;5029499;28;20056;-81
2023/12/25 10:24:29;;;;;;;14.63;7.45;;;9.70;99.90;;;;;;5023090;28;20140;-80
2023/12/25 10:27:02;;;;;;;15.15;9.40;;;9.70;99.90;;;;;;5057675;28;20090;-81
2023/12/25 10:29:35;;;;;;;17.80;5.80;;;9.80;99.90;;;;;;5017886;28;20049;-81
2023/12/25 10:32:19;;;;;;;15.25;6.90;;;9.70;99.90;;;;;;5026385;28;20041;-81
2023/12/25 10:34:46;;;;;;;14.20;7.35;;;9.70;99.90;;;;;;5030654;28;20048;-81
2023/12/25 10:37:15;;;;;;;8.20;4.63;;;9.80;99.90;;;;;;5037971;28;20060;-81
2023/12/25 10:39:42;;;;;;;7.55;3.83;;;9.80;99.90;;;;;;5026881;28;20453;-82
2023/12/25 10:42:12;;;;;;;8.80;4.53;;;9.80;99.90;;;;;;5013467;28;20112;-80
2023/12/25 10:44:44;;;;;;;8.88;3.85;;;9.70;99.90;;;;;;5040691;28;20041;-80
2023/12/25 10:47:11;;;;;;;6.05;3.72;;;9.70;99.90;;;;;;5013516;28;20049;-80
2023/12/25 10:49:40;;;;;;;14.27;6.30;;;9.80;99.90;;;;;;5038060;28;20049;-81
2023/12/25 10:52:09;;;;;;;14.57;5.78;;;9.70;99.90;;;;;;5031528;28;20050;-81
2023/12/25 10:54:37;;;;;;;6.82;4.28;;;9.70;99.90;;;;;;5036714;28;20161;-81
2023/12/25 10:57:06;;;;;;;11.27;4.85;;;9.70;99.90;;;;;;5039810;28;20042;-82
2023/12/25 10:59:38;;;;;;;9.98;4.97;;;9.70;99.90;;;;;;5025821;28;20056;-80
2023/12/25 11:02:10;;;;;;;11.60;4.70;;;9.70;99.90;;;;;;5038318;28;20059;-81
2023/12/25 11:04:38;;;;;;;9.35;6.05;;;9.80;99.90;;;;;;5022697;28;20049;-81
2023/12/25 11:07:04;;;;;;;9.00;4.00;;;9.70;99.90;;;;;;5038603;28;20041;-82
2023/12/25 11:09:31;;;;;;;5.90;3.90;;;9.70;99.90;;;;;;5034465;28;21026;-79
2023/12/25 11:11:59;;;;;;;10.13;3.88;;;9.70;99.90;;;;;;5011163;28;20486;-81
2023/12/25 11:14:28;;;;;;;6.78;3.90;;;9.80;99.90;;;;;;5012094;28;20049;-80
2023/12/25 11:16:55;;;;;;;7.32;4.05;;;9.70;99.90;;;;;;5018968;28;20041;-80
2023/12/25 11:19:22;;;;;;;9.18;4.97;;;9.70;99.90;;;;;;5001829;28;20052;-81
2023/12/25 11:21:49;;;;;;;4.65;3.30;;;9.80;99.90;;;;;;5012799;28;20064;-81
2023/12/25 11:24:16;;;;;;;6.28;3.40;;;9.70;99.90;;;;;;5046734;28;20056;-80
2023/12/25 11:26:44;;;;;;;6.03;2.67;;;9.70;99.90;;;;;;5025142;28;20128;-81
2023/12/25 11:29:11;;;;;;;6.35;3.08;;;9.70;99.90;;;;;;5029943;28;20045;-80
2023/12/25 11:31:44;;;;;;;4.10;2.05;;;9.60;99.90;;;;;;5032863;28;20119;-80
2023/12/25 11:34:26;;;;;;;6.05;2.70;;;9.60;99.90;;;;;;5024488;28;20056;-80
2023/12/25 11:36:58;;;;;;;7.72;2.63;;;9.60;99.90;;;;;;5030729;28;20243;-80
2023/12/25 11:39:27;;;;;;;4.25;2.60;;;9.60;99.90;;;;;;5036673;28;20074;-80
2023/12/25 11:41:55;;;;;;;6.40;2.70;;;9.60;99.90;;;;;;5025120;28;20041;-80
2023/12/25 11:44:34;;;;;;;7.15;2.85;;;9.60;99.90;;;;;;5012613;28;20055;-80
2023/12/25 11:47:03;;;;;;;7.93;2.83;;;9.50;99.90;;;;;;5029352;28;20091;-80
2023/12/25 11:49:36;;;;;;;9.13;2.42;;;9.50;99.90;;;;;;5033766;28;20056;-80
2023/12/25 11:52:04;;;;;;;6.68;2.85;;;9.30;99.90;;;;;;5028593;28;20045;-81
2023/12/25 11:54:35;;;;;;;3.25;1.92;;;9.30;99.90;;;;;;5007328;28;20037;-81
2023/12/25 11:57:17;;;;;;;7.40;2.20;;;9.20;99.90;;;;;;5032724;28;20073;-80
2023/12/25 11:59:46;;;;;;;2.95;1.83;;;9.20;99.90;;;;;;5032118;28;20071;-80
2023/12/25 12:02:12;;;;;;;5.60;2.60;;;9.20;99.90;;;;;;5011988;28;20049;-81
2023/12/25 12:04:39;;;;;;;6.22;2.65;;;9.30;99.90;;;;;;5023217;28;20051;-80
2023/12/25 12:07:06;;;;;;;3.15;2.75;;;9.20;99.90;;;;;;5023138;28;20049;-80
2023/12/25 12:09:33;;;;;;;4.20;2.30;;;9.30;99.90;;;;;;5039806;28;20075;-80
2023/12/25 12:12:00;;;;;;;8.88;3.35;;;9.10;99.90;;;;;;5031559;28;20048;-80
2023/12/25 12:14:27;;;;;;;4.13;2.45;;;9.10;99.90;;;;;;5051812;28;20055;-80
2023/12/25 12:16:55;;;;;;;5.28;3.20;;;9.20;99.90;;;;;;5015001;28;20037;-81
2023/12/25 12:19:25;;;;;;;9.00;5.82;;;9.20;99.90;;;;;;4989361;28;20072;-79
2023/12/25 12:21:53;;;;;;;6.88;3.63;;;9.20;99.90;;;;;;5009890;28;20044;-81
2023/12/25 12:24:26;;;;;;;6.25;3.85;;;9.30;99.90;;;;;;5027673;28;20104;-80
2023/12/25 12:26:54;;;;;;;6.37;3.43;;;9.20;99.90;;;;;;5020820;28;20051;-80
2023/12/25 12:29:21;;;;;;;7.72;3.95;;;9.20;99.90;;;;;;5003061;28;20322;-81
2023/12/25 12:31:47;;;;;;;6.78;2.95;;;9.20;99.90;;;;;;5023035;28;20048;-79
2023/12/25 12:34:14;;;;;;;7.05;3.65;;;9.10;99.90;;;;;;5020167;28;20061;-78
2023/12/25 12:36:41;;;;;;;5.60;2.90;;;9.20;99.90;;;;;;5019295;28;20107;-80
2023/12/25 12:39:08;;;;;;;4.32;3.60;;;9.20;99.90;;;;;;5054257;28;20040;-80
2023/12/25 12:41:35;;;;;;;4.53;3.58;;;9.20;99.90;;;;;;5034365;28;20049;-81
2023/12/25 12:44:03;;;;;;;5.53;2.95;;;9.20;99.90;;;;;;5039640;28;20071;-80
2023/12/25 12:46:30;;;;;;;3.90;3.15;;;9.20;99.90;;;;;;5030407;28;20056;-79
2023/12/25 12:48:56;;;;;;;3.72;2.42;;;9.30;99.90;;;;;;5041704;28;20047;-80